Anthem Of The Seas — C6BI7 — position and weather

sailwx.info

Track history (hours):
 
Tides and Currents Weather Stations Pressure Air Temp Water Temp Dewpoint Dewpoint Depression Visibility Wind Speed Wind Dir Waves Ship Positions

Anthem Of The Seas

Last reported at 2017-Sep-18 03:17 UTC. Time now 2017-Sep-23 14:50 UTC.
Position N 43°30' W 068°53'.

Length 348 m; draft 8.8 m.

Type: Passenger vessel. MMSI: 311000274.

Date/timePositionNaut miles runAvg speedWind from/ knotsBaromVisibWave heightAir tempDewpointWater temp
2017-Sep-18 03:17N 43°30' W 068°53'510.5
2017-Sep-18 02:46N 43°29' W 069°00'310.8
2017-Sep-18 02:30N 43°28' W 069°04'2910.6
2017-Sep-17 23:49N 43°25' W 069°43'411.0
2017-Sep-17 23:27N 43°27' W 069°49'511.0
2017-Sep-17 23:00N 43°28' W 069°55'610.9
2017-Sep-17 22:29N 43°30' W 070°03'710.8
2017-Sep-17 21:52N 43°34' W 070°09'4 0.3
2017-Sep-17 10:07N 43°38' W 070°12'311.8
2017-Sep-17 09:53N 43°35' W 070°10'613.3
2017-Sep-17 09:28N 43°31' W 070°05'10 9.1
2017-Sep-17 08:24N 43°22' W 069°60'4 9.2
2017-Sep-17 08:00N 43°19' W 069°58'5 9.2
2017-Sep-17 07:30N 43°15' W 069°56'5 9.0
2017-Sep-17 07:00N 43°10' W 069°54'5 8.5
2017-Sep-17 06:28N 43°06' W 069°55'14 9.2
2017-Sep-17 04:56N 42°55' W 070°07'4 9.2
2017-Sep-17 04:27N 42°52' W 070°11'5 9.3
2017-Sep-17 03:52N 42°48' W 070°17'3 9.4
2017-Sep-17 03:30N 42°46' W 070°20'5 9.2
2017-Sep-17 03:00N 42°42' W 070°23'5 9.0
2017-Sep-17 02:30N 42°38' W 070°27'5 9.5
2017-Sep-17 02:01N 42°35' W 070°31'5 9.3
2017-Sep-17 01:30N 42°32' W 070°36'5 9.2
2017-Sep-17 01:00N 42°29' W 070°41'5 9.1
2017-Sep-17 00:30N 42°26' W 070°46'5 9.2
2017-Sep-17 00:01N 42°23' W 070°51'611.0
2017-Sep-16 23:30N 42°20' W 070°57'3 6.6
2017-Sep-16 23:01N 42°21' W 071°01'0 0.6
2017-Sep-16 22:30N 42°21' W 071°02'0 0.0
2017-Sep-16 21:57N 42°21' W 071°02'0 0.0
2017-Sep-16 21:27N 42°21' W 071°02'0 0.0
2017-Sep-16 20:57N 42°21' W 071°02'0 0.0
2017-Sep-16 20:30N 42°21' W 071°02'0 0.0
2017-Sep-16 19:54N 42°21' W 071°02'0 0.0
2017-Sep-16 19:27N 42°21' W 071°02'0 0.0
2017-Sep-16 19:00N 42°21' W 071°02'0 0.0
2017-Sep-16 18:30N 42°21' W 071°02'0 0.0
2017-Sep-16 17:57N 42°21' W 071°02'0 0.0
2017-Sep-16 17:24N 42°21' W 071°02'0 0.0
2017-Sep-16 16:57N 42°21' W 071°02'0 0.0
2017-Sep-16 16:30N 42°21' W 071°02'0 0.0
2017-Sep-16 15:51N 42°21' W 071°02'0 0.0
2017-Sep-16 15:30N 42°21' W 071°02'0 0.0
2017-Sep-16 14:51N 42°21' W 071°02'0 0.0
2017-Sep-16 14:24N 42°21' W 071°02'0 0.0
2017-Sep-16 13:57N 42°21' W 071°02'0 0.0
2017-Sep-16 13:30N 42°21' W 071°02'0 0.0
2017-Sep-16 12:54N 42°21' W 071°02'0 0.0
2017-Sep-16 12:30N 42°21' W 071°02'0 0.0
2017-Sep-16 11:57N 42°21' W 071°02'0 0.0
2017-Sep-16 11:30N 42°21' W 071°02'0 0.0
2017-Sep-16 11:00N 42°21' W 071°02'2 3.1
2017-Sep-16 10:31N 42°20' W 070°60'4 8.0
2017-Sep-16 10:00N 42°22' W 070°55'4 8.8
2017-Sep-16 09:31N 42°24' W 070°50'4 8.7
2017-Sep-16 09:01N 42°23' W 070°44'5 9.7
2017-Sep-16 08:31N 42°22' W 070°38'510.0
2017-Sep-16 08:01N 42°21' W 070°31'5 9.8
2017-Sep-16 07:30N 42°21' W 070°24'5 9.6
2017-Sep-16 07:01N 42°20' W 070°18'510.0
2017-Sep-16 06:31N 42°20' W 070°11'611.0
2017-Sep-16 06:00N 42°20' W 070°04'5 9.2
2017-Sep-16 05:31N 42°17' W 069°59'5 9.9
2017-Sep-16 05:00N 42°13' W 069°56'510.2
2017-Sep-16 04:30N 42°08' W 069°53'510.5
2017-Sep-16 04:00N 42°03' W 069°49'510.3
2017-Sep-16 03:30N 41°59' W 069°46'510.1
2017-Sep-16 02:59N 41°54' W 069°43'510.2
2017-Sep-16 02:29N 41°50' W 069°40'610.4
2017-Sep-16 01:56N 41°44' W 069°36'205 7.3
2017-Sep-14 21:39N 40°28' W 073°49'1 9.9
2017-Sep-14 21:31N 40°28' W 073°51'815.9
2017-Sep-14 21:01N 40°31' W 074°01'714.4
2017-Sep-14 20:31N 40°38' W 074°03'2 3.2
2017-Sep-14 20:00N 40°40' W 074°04'0 0.0
2017-Sep-14 19:30N 40°40' W 074°04'0 0.0
2017-Sep-14 19:00N 40°40' W 074°04'0 0.0
2017-Sep-14 18:30N 40°40' W 074°04'0 0.0
2017-Sep-14 18:00N 40°40' W 074°04'0 0.0
2017-Sep-14 17:30N 40°40' W 074°04'0 0.0
2017-Sep-14 17:00N 40°40' W 074°04'0 0.0
2017-Sep-14 16:30N 40°40' W 074°04'0 0.0
2017-Sep-14 16:00N 40°40' W 074°04'0 0.0
2017-Sep-14 15:30N 40°40' W 074°04'0 0.0
2017-Sep-14 15:00N 40°40' W 074°04'0 0.0
2017-Sep-14 14:30N 40°40' W 074°04'0 0.0
2017-Sep-14 14:00N 40°40' W 074°04'0 0.0
2017-Sep-14 13:30N 40°40' W 074°04'0 0.0
2017-Sep-14 13:00N 40°40' W 074°04'0 0.0
2017-Sep-14 12:30N 40°40' W 074°04'0 0.0
2017-Sep-14 12:00N 40°40' W 074°04'0 0.0
2017-Sep-14 11:30N 40°40' W 074°04'0 0.0
2017-Sep-14 11:01N 40°40' W 074°04'1 1.6
2017-Sep-14 10:31N 40°39' W 074°03'510.1
2017-Sep-14 10:00N 40°34' W 074°02'713.5
2017-Sep-14 09:30N 40°30' W 073°56'713.7
2017-Sep-14 09:01N 40°27' W 073°48'815.1
2017-Sep-14 08:31N 40°22' W 073°40'815.9
2017-Sep-14 08:01N 40°17' W 073°31'816.0
2017-Sep-14 07:30N 40°13' W 073°23'816.0
2017-Sep-14 07:01N 40°08' W 073°15'816.0
2017-Sep-14 06:31N 40°03' W 073°06'815.6
2017-Sep-14 06:00N 39°58' W 072°58'816.7
2017-Sep-14 05:30N 39°52' W 072°51'817.0
2017-Sep-14 05:00N 39°46' W 072°43'917.1
2017-Sep-14 04:30N 39°39' W 072°36'917.0
2017-Sep-14 03:59N 39°33' W 072°28'817.2
2017-Sep-14 03:31N 39°27' W 072°21'1518.4
2017-Sep-14 02:43N 39°16' W 072°09'2419.8
2017-Sep-14 01:30N 38°58' W 071°48'25218.0
2017-Sep-13 11:29N 35°52' W 068°15'918.1
2017-Sep-13 11:00N 35°45' W 068°08'1121.3
2017-Sep-13 10:28N 35°37' W 067°58'  
2017-Sep-09 22:54N 40°06' W 073°26'2718.9
2017-Sep-09 21:28N 40°27' W 073°50'715.6
2017-Sep-09 21:00N 40°30' W 073°58'816.3
2017-Sep-09 20:30N 40°37' W 074°03'3 5.1
2017-Sep-09 19:59N 40°40' W 074°04'0 0.0
2017-Sep-09 19:29N 40°40' W 074°04'0 0.0
2017-Sep-09 18:59N 40°40' W 074°04'0 0.0
2017-Sep-09 18:29N 40°40' W 074°04'0 0.0
2017-Sep-09 17:59N 40°40' W 074°04'0 0.0
2017-Sep-09 17:29N 40°40' W 074°04'0 0.0
2017-Sep-09 16:59N 40°40' W 074°04'0 0.0
2017-Sep-09 16:29N 40°40' W 074°04'0 0.0
2017-Sep-09 15:59N 40°40' W 074°04'0 0.0
2017-Sep-09 15:29N 40°40' W 074°04'0 0.0
2017-Sep-09 14:59N 40°40' W 074°04'0 0.0
2017-Sep-09 14:29N 40°40' W 074°04'0 0.0
2017-Sep-09 13:59N 40°40' W 074°04'0 0.0
2017-Sep-09 13:29N 40°40' W 074°04'0 0.0
2017-Sep-09 12:59N 40°40' W 074°04'0 0.0
2017-Sep-09 12:29N 40°40' W 074°04'0 0.0
2017-Sep-09 11:59N 40°40' W 074°04'0 0.0
2017-Sep-09 11:29N 40°40' W 074°04'0 0.0
2017-Sep-09 11:00N 40°40' W 074°04'1 2.9
2017-Sep-09 10:30N 40°39' W 074°03'611.7
2017-Sep-09 10:00N 40°33' W 074°02'815.3
2017-Sep-09 09:30N 40°29' W 073°53'611.3
2017-Sep-09 09:00N 40°27' W 073°46'713.1
2017-Sep-09 08:30N 40°27' W 073°37'  
Track history (hours):
 
Tides and Currents Weather Stations Pressure Air Temp Water Temp Dewpoint Dewpoint Depression Visibility Wind Speed Wind Dir Waves Ship Positions

Anthem Of The Seas

Last reported at 2017-Sep-18 03:17 UTC. Time now 2017-Sep-23 14:50 UTC.
Position N 43°30' W 068°53'.

Length 348 m; draft 8.8 m.

Type: Passenger vessel. MMSI: 311000274.

Date/timePositionNaut miles runAvg speedWind from/ knotsBaromVisibWave heightAir tempDewpointWater temp
2017-Sep-18 03:17N 43°30' W 068°53'510.5
2017-Sep-18 02:46N 43°29' W 069°00'310.8
2017-Sep-18 02:30N 43°28' W 069°04'2910.6
2017-Sep-17 23:49N 43°25' W 069°43'411.0
2017-Sep-17 23:27N 43°27' W 069°49'511.0
2017-Sep-17 23:00N 43°28' W 069°55'610.9
2017-Sep-17 22:29N 43°30' W 070°03'710.8
2017-Sep-17 21:52N 43°34' W 070°09'4 0.3
2017-Sep-17 10:07N 43°38' W 070°12'311.8
2017-Sep-17 09:53N 43°35' W 070°10'613.3
2017-Sep-17 09:28N 43°31' W 070°05'10 9.1
2017-Sep-17 08:24N 43°22' W 069°60'4 9.2
2017-Sep-17 08:00N 43°19' W 069°58'5 9.2
2017-Sep-17 07:30N 43°15' W 069°56'5 9.0
2017-Sep-17 07:00N 43°10' W 069°54'5 8.5
2017-Sep-17 06:28N 43°06' W 069°55'14 9.2
2017-Sep-17 04:56N 42°55' W 070°07'4 9.2
2017-Sep-17 04:27N 42°52' W 070°11'5 9.3
2017-Sep-17 03:52N 42°48' W 070°17'3 9.4
2017-Sep-17 03:30N 42°46' W 070°20'5 9.2
2017-Sep-17 03:00N 42°42' W 070°23'5 9.0
2017-Sep-17 02:30N 42°38' W 070°27'5 9.5
2017-Sep-17 02:01N 42°35' W 070°31'5 9.3
2017-Sep-17 01:30N 42°32' W 070°36'5 9.2
2017-Sep-17 01:00N 42°29' W 070°41'5 9.1
2017-Sep-17 00:30N 42°26' W 070°46'5 9.2
2017-Sep-17 00:01N 42°23' W 070°51'611.0
2017-Sep-16 23:30N 42°20' W 070°57'3 6.6
2017-Sep-16 23:01N 42°21' W 071°01'0 0.6
2017-Sep-16 22:30N 42°21' W 071°02'0 0.0
2017-Sep-16 21:57N 42°21' W 071°02'0 0.0
2017-Sep-16 21:27N 42°21' W 071°02'0 0.0
2017-Sep-16 20:57N 42°21' W 071°02'0 0.0
2017-Sep-16 20:30N 42°21' W 071°02'0 0.0
2017-Sep-16 19:54N 42°21' W 071°02'0 0.0
2017-Sep-16 19:27N 42°21' W 071°02'0 0.0
2017-Sep-16 19:00N 42°21' W 071°02'0 0.0
2017-Sep-16 18:30N 42°21' W 071°02'0 0.0
2017-Sep-16 17:57N 42°21' W 071°02'0 0.0
2017-Sep-16 17:24N 42°21' W 071°02'0 0.0
2017-Sep-16 16:57N 42°21' W 071°02'0 0.0
2017-Sep-16 16:30N 42°21' W 071°02'0 0.0
2017-Sep-16 15:51N 42°21' W 071°02'0 0.0
2017-Sep-16 15:30N 42°21' W 071°02'0 0.0
2017-Sep-16 14:51N 42°21' W 071°02'0 0.0
2017-Sep-16 14:24N 42°21' W 071°02'0 0.0
2017-Sep-16 13:57N 42°21' W 071°02'0 0.0
2017-Sep-16 13:30N 42°21' W 071°02'0 0.0
2017-Sep-16 12:54N 42°21' W 071°02'0 0.0
2017-Sep-16 12:30N 42°21' W 071°02'0 0.0
2017-Sep-16 11:57N 42°21' W 071°02'0 0.0
2017-Sep-16 11:30N 42°21' W 071°02'0 0.0
2017-Sep-16 11:00N 42°21' W 071°02'2 3.1
2017-Sep-16 10:31N 42°20' W 070°60'4 8.0
2017-Sep-16 10:00N 42°22' W 070°55'4 8.8
2017-Sep-16 09:31N 42°24' W 070°50'4 8.7
2017-Sep-16 09:01N 42°23' W 070°44'5 9.7
2017-Sep-16 08:31N 42°22' W 070°38'510.0
2017-Sep-16 08:01N 42°21' W 070°31'5 9.8
2017-Sep-16 07:30N 42°21' W 070°24'5 9.6
2017-Sep-16 07:01N 42°20' W 070°18'510.0
2017-Sep-16 06:31N 42°20' W 070°11'611.0
2017-Sep-16 06:00N 42°20' W 070°04'5 9.2
2017-Sep-16 05:31N 42°17' W 069°59'5 9.9
2017-Sep-16 05:00N 42°13' W 069°56'510.2
2017-Sep-16 04:30N 42°08' W 069°53'510.5
2017-Sep-16 04:00N 42°03' W 069°49'510.3
2017-Sep-16 03:30N 41°59' W 069°46'510.1
2017-Sep-16 02:59N 41°54' W 069°43'510.2
2017-Sep-16 02:29N 41°50' W 069°40'610.4
2017-Sep-16 01:56N 41°44' W 069°36'205 7.3
2017-Sep-14 21:39N 40°28' W 073°49'1 9.9
2017-Sep-14 21:31N 40°28' W 073°51'815.9
2017-Sep-14 21:01N 40°31' W 074°01'714.4
2017-Sep-14 20:31N 40°38' W 074°03'2 3.2
2017-Sep-14 20:00N 40°40' W 074°04'0 0.0
2017-Sep-14 19:30N 40°40' W 074°04'0 0.0
2017-Sep-14 19:00N 40°40' W 074°04'0 0.0
2017-Sep-14 18:30N 40°40' W 074°04'0 0.0
2017-Sep-14 18:00N 40°40' W 074°04'0 0.0
2017-Sep-14 17:30N 40°40' W 074°04'0 0.0
2017-Sep-14 17:00N 40°40' W 074°04'0 0.0
2017-Sep-14 16:30N 40°40' W 074°04'0 0.0
2017-Sep-14 16:00N 40°40' W 074°04'0 0.0
2017-Sep-14 15:30N 40°40' W 074°04'0 0.0
2017-Sep-14 15:00N 40°40' W 074°04'0 0.0
2017-Sep-14 14:30N 40°40' W 074°04'0 0.0
2017-Sep-14 14:00N 40°40' W 074°04'0 0.0
2017-Sep-14 13:30N 40°40' W 074°04'0 0.0
2017-Sep-14 13:00N 40°40' W 074°04'0 0.0
2017-Sep-14 12:30N 40°40' W 074°04'0 0.0
2017-Sep-14 12:00N 40°40' W 074°04'0 0.0
2017-Sep-14 11:30N 40°40' W 074°04'0 0.0
2017-Sep-14 11:01N 40°40' W 074°04'1 1.6
2017-Sep-14 10:31N 40°39' W 074°03'510.1
2017-Sep-14 10:00N 40°34' W 074°02'713.5
2017-Sep-14 09:30N 40°30' W 073°56'713.7
2017-Sep-14 09:01N 40°27' W 073°48'815.1
2017-Sep-14 08:31N 40°22' W 073°40'815.9
2017-Sep-14 08:01N 40°17' W 073°31'816.0
2017-Sep-14 07:30N 40°13' W 073°23'816.0
2017-Sep-14 07:01N 40°08' W 073°15'816.0
2017-Sep-14 06:31N 40°03' W 073°06'815.6
2017-Sep-14 06:00N 39°58' W 072°58'816.7
2017-Sep-14 05:30N 39°52' W 072°51'817.0
2017-Sep-14 05:00N 39°46' W 072°43'917.1
2017-Sep-14 04:30N 39°39' W 072°36'917.0
2017-Sep-14 03:59N 39°33' W 072°28'817.2
2017-Sep-14 03:31N 39°27' W 072°21'1518.4
2017-Sep-14 02:43N 39°16' W 072°09'2419.8
2017-Sep-14 01:30N 38°58' W 071°48'25218.0
2017-Sep-13 11:29N 35°52' W 068°15'918.1
2017-Sep-13 11:00N 35°45' W 068°08'1121.3
2017-Sep-13 10:28N 35°37' W 067°58'  
2017-Sep-09 22:54N 40°06' W 073°26'2718.9
2017-Sep-09 21:28N 40°27' W 073°50'715.6
2017-Sep-09 21:00N 40°30' W 073°58'816.3
2017-Sep-09 20:30N 40°37' W 074°03'3 5.1
2017-Sep-09 19:59N 40°40' W 074°04'0 0.0
2017-Sep-09 19:29N 40°40' W 074°04'0 0.0
2017-Sep-09 18:59N 40°40' W 074°04'0 0.0
2017-Sep-09 18:29N 40°40' W 074°04'0 0.0
2017-Sep-09 17:59N 40°40' W 074°04'0 0.0
2017-Sep-09 17:29N 40°40' W 074°04'0 0.0
2017-Sep-09 16:59N 40°40' W 074°04'0 0.0
2017-Sep-09 16:29N 40°40' W 074°04'0 0.0
2017-Sep-09 15:59N 40°40' W 074°04'0 0.0
2017-Sep-09 15:29N 40°40' W 074°04'0 0.0
2017-Sep-09 14:59N 40°40' W 074°04'0 0.0
2017-Sep-09 14:29N 40°40' W 074°04'0 0.0
2017-Sep-09 13:59N 40°40' W 074°04'0 0.0
2017-Sep-09 13:29N 40°40' W 074°04'0 0.0
2017-Sep-09 12:59N 40°40' W 074°04'0 0.0
2017-Sep-09 12:29N 40°40' W 074°04'0 0.0
2017-Sep-09 11:59N 40°40' W 074°04'0 0.0
2017-Sep-09 11:29N 40°40' W 074°04'0 0.0
2017-Sep-09 11:00N 40°40' W 074°04'1 2.9
2017-Sep-09 10:30N 40°39' W 074°03'611.7
2017-Sep-09 10:00N 40°33' W 074°02'815.3
2017-Sep-09 09:30N 40°29' W 073°53'611.3
2017-Sep-09 09:00N 40°27' W 073°46'713.1
2017-Sep-09 08:30N 40°27' W 073°37'  

Dump ship's entire track history